createdAt,value
2022-12-31T00:01:10.307Z,99.90
2022-12-31T00:03:41.242Z,99.90
2022-12-31T00:06:22.374Z,99.90
2022-12-31T00:08:52.122Z,91.80
2022-12-31T00:11:21.412Z,78.00
2022-12-31T00:13:50.067Z,54.40
2022-12-31T00:16:21.448Z,40.10
2022-12-31T00:18:55.504Z,34.90
2022-12-31T00:21:24.352Z,28.00
2022-12-31T00:23:53.159Z,22.40
2022-12-31T00:26:24.801Z,1.00
2022-12-31T00:28:55.093Z,1.00
2022-12-31T00:31:26.591Z,1.00
2022-12-31T00:33:57.248Z,1.00
2022-12-31T00:36:29.081Z,1.00
2022-12-31T00:39:00.389Z,1.00
2022-12-31T00:41:30.373Z,1.00
2022-12-31T00:43:59.169Z,1.00
2022-12-31T00:46:28.001Z,1.00
2022-12-31T00:48:57.642Z,1.00
2022-12-31T00:51:27.561Z,1.00
2022-12-31T00:53:56.779Z,1.00
2022-12-31T00:56:28.415Z,1.00
2022-12-31T00:58:56.823Z,1.00
2022-12-31T01:01:28.137Z,1.00
2022-12-31T01:04:02.673Z,1.00
2022-12-31T01:06:31.742Z,1.00
2022-12-31T01:09:00.149Z,1.00
2022-12-31T01:11:30.046Z,1.00
2022-12-31T01:14:01.861Z,1.00
2022-12-31T01:16:33.509Z,1.00
2022-12-31T01:19:06.009Z,1.00
2022-12-31T01:21:36.484Z,1.00
2022-12-31T01:24:05.509Z,1.00
2022-12-31T01:26:33.880Z,1.00
2022-12-31T01:29:02.099Z,1.00
2022-12-31T01:31:30.554Z,1.00
2022-12-31T01:33:59.726Z,1.00
2022-12-31T01:36:33.240Z,1.00
2022-12-31T01:39:05.376Z,1.00
2022-12-31T01:41:36.931Z,1.00
2022-12-31T01:44:53.988Z,1.00
2022-12-31T01:47:37.824Z,1.00
2022-12-31T01:50:13.845Z,1.00
2022-12-31T01:52:47.912Z,1.00
2022-12-31T01:55:24.017Z,1.00
2022-12-31T01:57:58.500Z,1.00
2022-12-31T02:00:27.328Z,1.00
2022-12-31T02:02:55.946Z,1.00
2022-12-31T02:05:30.606Z,1.00
2022-12-31T02:08:01.001Z,1.00
2022-12-31T02:10:29.274Z,1.00
2022-12-31T02:12:57.795Z,1.00
2022-12-31T02:15:38.977Z,1.00
2022-12-31T02:18:18.802Z,1.00
2022-12-31T02:21:15.685Z,1.00
2022-12-31T02:24:29.973Z,1.00
2022-12-31T02:27:06.592Z,1.00
2022-12-31T02:30:09.587Z,1.00
2022-12-31T02:32:51.549Z,1.00
2022-12-31T02:35:28.514Z,1.00
2022-12-31T02:38:03.897Z,1.00
2022-12-31T02:40:36.747Z,1.00
2022-12-31T02:43:05.606Z,1.00
2022-12-31T02:45:41.147Z,1.00
2022-12-31T02:48:34.901Z,1.00
2022-12-31T02:51:18.590Z,1.00
2022-12-31T02:54:12.790Z,1.00
2022-12-31T02:56:52.982Z,1.00
2022-12-31T02:59:46.820Z,1.00
2022-12-31T03:02:22.616Z,1.00
2022-12-31T03:04:54.208Z,1.00
2022-12-31T03:07:25.402Z,1.00
2022-12-31T03:09:54.299Z,1.00
2022-12-31T03:12:44.204Z,1.00
2022-12-31T03:15:21.084Z,1.00
2022-12-31T03:17:55.824Z,1.00
2022-12-31T03:20:46.151Z,1.00
2022-12-31T03:23:19.634Z,1.00
2022-12-31T03:25:47.156Z,1.00
2022-12-31T03:28:18.693Z,1.00
2022-12-31T03:30:49.555Z,1.00
2022-12-31T03:33:19.470Z,1.00
2022-12-31T03:35:49.171Z,1.00
2022-12-31T03:38:19.498Z,1.00
2022-12-31T03:40:51.310Z,1.00
2022-12-31T03:43:20.337Z,1.00
2022-12-31T03:45:52.496Z,1.00
2022-12-31T03:48:23.848Z,1.00
2022-12-31T03:50:53.007Z,1.00
2022-12-31T03:53:22.127Z,1.00
2022-12-31T03:55:52.940Z,1.00
2022-12-31T03:58:21.707Z,1.00
2022-12-31T04:00:50.417Z,1.00
2022-12-31T04:03:18.828Z,1.00
2022-12-31T04:05:54.543Z,1.00
2022-12-31T04:08:22.904Z,1.00
2022-12-31T04:10:51.594Z,1.00
2022-12-31T04:13:19.883Z,1.00
2022-12-31T04:15:52.124Z,1.00
2022-12-31T04:18:20.423Z,1.00
2022-12-31T04:20:50.123Z,1.00
2022-12-31T04:23:18.587Z,1.00
2022-12-31T04:25:46.823Z,1.00
2022-12-31T04:28:15.092Z,1.00
2022-12-31T04:30:43.361Z,1.00
2022-12-31T04:33:11.625Z,1.00
2022-12-31T04:35:39.929Z,1.00
2022-12-31T04:38:09.764Z,1.00
2022-12-31T04:40:58.666Z,1.00
2022-12-31T04:43:26.912Z,1.00
2022-12-31T04:45:55.184Z,1.00
2022-12-31T04:48:23.437Z,1.00
2022-12-31T04:50:51.669Z,1.00
2022-12-31T04:53:21.389Z,1.00
2022-12-31T04:55:49.653Z,1.00
2022-12-31T04:58:18.493Z,1.00
2022-12-31T05:00:49.747Z,1.00
2022-12-31T05:03:18.970Z,1.00
2022-12-31T05:05:47.367Z,1.00
2022-12-31T05:08:16.021Z,1.00
2022-12-31T05:10:50.570Z,1.00
2022-12-31T05:13:18.857Z,1.00
2022-12-31T05:15:47.681Z,1.00
2022-12-31T05:18:17.443Z,1.00
2022-12-31T05:20:45.954Z,1.00
2022-12-31T05:23:15.461Z,1.00
2022-12-31T05:25:46.672Z,1.00
2022-12-31T05:28:15.780Z,1.00
2022-12-31T05:30:45.373Z,1.00
2022-12-31T05:33:13.697Z,1.00
2022-12-31T05:35:42.019Z,1.00
2022-12-31T05:38:10.270Z,1.00
2022-12-31T05:40:38.618Z,1.00
2022-12-31T05:43:08.309Z,1.00
2022-12-31T05:45:36.709Z,1.00
2022-12-31T05:48:05.257Z,1.00
2022-12-31T05:50:33.612Z,1.00
2022-12-31T05:53:01.920Z,1.00
2022-12-31T05:55:30.303Z,1.00
2022-12-31T05:57:58.670Z,1.00
2022-12-31T06:00:28.347Z,1.00
2022-12-31T06:02:56.711Z,1.00
2022-12-31T06:05:26.482Z,1.00
2022-12-31T06:07:55.056Z,1.00
2022-12-31T06:10:23.419Z,1.00
2022-12-31T06:12:51.683Z,67.00
2022-12-31T06:15:20.068Z,99.90
2022-12-31T06:17:49.683Z,99.90
2022-12-31T06:20:18.146Z,99.90
2022-12-31T06:22:46.482Z,99.90
2022-12-31T06:25:15.275Z,99.90
2022-12-31T06:27:43.530Z,99.90
2022-12-31T06:30:13.693Z,99.90
2022-12-31T06:32:42.177Z,99.90
2022-12-31T06:35:11.962Z,99.90
2022-12-31T06:37:40.518Z,99.90
2022-12-31T06:40:10.945Z,99.90
2022-12-31T06:42:39.167Z,99.90
2022-12-31T06:45:09.242Z,99.90
2022-12-31T06:51:47.785Z,99.90
2022-12-31T06:54:16.115Z,99.90
2022-12-31T06:56:45.283Z,99.90
2022-12-31T06:59:26.915Z,99.90
2022-12-31T07:02:24.052Z,99.90
2022-12-31T07:05:14.002Z,99.90
2022-12-31T07:07:59.779Z,99.90
2022-12-31T07:10:46.206Z,99.90
2022-12-31T07:13:57.794Z,99.90
2022-12-31T07:23:13.469Z,99.90
2022-12-31T07:25:48.096Z,99.90
2022-12-31T07:28:35.174Z,99.90
2022-12-31T07:34:00.156Z,99.90
2022-12-31T07:37:04.168Z,99.90
2022-12-31T07:39:47.182Z,99.90
2022-12-31T07:42:25.064Z,99.90
2022-12-31T07:45:04.905Z,99.90
2022-12-31T07:47:34.188Z,99.90
2022-12-31T07:52:46.195Z,55.20
2022-12-31T07:55:16.540Z,44.50
2022-12-31T07:57:58.455Z,35.90
2022-12-31T08:00:30.340Z,28.50
2022-12-31T08:03:13.413Z,16.70
2022-12-31T08:05:55.603Z,10.80
2022-12-31T08:08:37.853Z,1.00
2022-12-31T08:11:22.565Z,1.00
2022-12-31T08:13:53.542Z,1.00
2022-12-31T08:16:22.740Z,1.00
2022-12-31T08:18:51.730Z,1.00
2022-12-31T08:21:38.033Z,1.00
2022-12-31T08:24:20.910Z,1.00
2022-12-31T08:27:04.737Z,1.00
2022-12-31T08:29:45.649Z,1.00
2022-12-31T08:32:22.797Z,1.00
2022-12-31T08:35:04.420Z,1.00
2022-12-31T08:37:41.104Z,1.00
2022-12-31T08:40:23.410Z,1.00
2022-12-31T08:43:20.249Z,1.00
2022-12-31T08:45:52.020Z,1.00
2022-12-31T08:48:30.893Z,1.00
2022-12-31T08:50:59.982Z,1.00
2022-12-31T08:53:29.078Z,1.00
2022-12-31T08:56:10.994Z,1.00
2022-12-31T08:58:53.897Z,1.00
2022-12-31T09:01:28.992Z,1.00
2022-12-31T09:04:17.797Z,1.00
2022-12-31T09:06:55.688Z,1.00
2022-12-31T09:09:38.492Z,1.00
2022-12-31T09:12:18.154Z,99.90
2022-12-31T09:14:51.609Z,99.90
2022-12-31T09:17:43.024Z,99.90
2022-12-31T09:20:23.996Z,99.90
2022-12-31T09:22:54.151Z,1.00
2022-12-31T09:25:25.081Z,1.00
2022-12-31T09:28:17.519Z,1.00
2022-12-31T09:30:58.090Z,1.00
2022-12-31T09:33:43.256Z,99.90
2022-12-31T09:36:20.675Z,99.90
2022-12-31T09:39:01.808Z,2.90
2022-12-31T09:42:13.571Z,53.10
2022-12-31T09:45:24.985Z,1.00
2022-12-31T09:48:52.727Z,99.90
2022-12-31T09:51:32.483Z,1.00
2022-12-31T09:54:43.205Z,99.90
2022-12-31T09:57:41.485Z,1.00
2022-12-31T10:00:21.261Z,99.90
2022-12-31T10:03:18.136Z,11.20
2022-12-31T10:06:05.953Z,99.90
2022-12-31T10:08:55.091Z,99.90
2022-12-31T10:11:41.454Z,1.00
2022-12-31T10:14:36.673Z,1.00
2022-12-31T10:17:33.341Z,1.00
2022-12-31T10:20:26.430Z,1.00
2022-12-31T10:23:56.359Z,99.90
2022-12-31T10:26:57.945Z,99.90
2022-12-31T10:29:43.132Z,99.90
2022-12-31T10:32:26.290Z,1.00
2022-12-31T10:35:13.731Z,99.90
2022-12-31T10:37:57.876Z,1.00
2022-12-31T10:41:27.556Z,1.00
2022-12-31T10:44:39.226Z,99.90
2022-12-31T10:48:09.729Z,1.00
2022-12-31T10:51:29.462Z,1.00
2022-12-31T10:54:37.358Z,1.00
2022-12-31T10:57:38.879Z,1.00
2022-12-31T11:00:20.349Z,99.90
2022-12-31T11:03:39.241Z,1.00
2022-12-31T11:07:05.028Z,1.00
2022-12-31T11:10:37.145Z,1.00
2022-12-31T11:14:07.768Z,1.00
2022-12-31T11:17:15.047Z,1.00
2022-12-31T11:19:58.845Z,1.00
2022-12-31T11:22:55.529Z,1.00
2022-12-31T11:25:41.577Z,1.00
2022-12-31T11:28:51.468Z,1.00
2022-12-31T11:31:58.044Z,99.90
2022-12-31T11:35:14.923Z,1.00
2022-12-31T11:37:49.053Z,1.00
2022-12-31T11:40:37.963Z,1.00
2022-12-31T11:43:23.624Z,99.90
2022-12-31T11:46:44.723Z,99.90
2022-12-31T11:49:43.568Z,99.90
2022-12-31T11:52:50.960Z,1.00
2022-12-31T11:55:48.383Z,99.90
2022-12-31T11:58:20.444Z,1.00
2022-12-31T12:00:59.963Z,1.00
2022-12-31T12:03:30.555Z,1.00
2022-12-31T12:06:00.281Z,99.90
2022-12-31T12:08:32.805Z,99.90
2022-12-31T12:11:08.658Z,99.90
2022-12-31T12:13:36.904Z,99.90
2022-12-31T12:16:09.069Z,1.00
2022-12-31T12:18:46.065Z,1.00
2022-12-31T12:21:18.298Z,1.00
2022-12-31T12:23:58.553Z,1.00
2022-12-31T12:26:36.722Z,1.00
2022-12-31T12:29:20.400Z,1.00
2022-12-31T12:32:00.146Z,1.00
2022-12-31T12:34:33.110Z,1.00
2022-12-31T12:37:02.165Z,1.00
2022-12-31T12:39:33.999Z,1.00
2022-12-31T12:42:05.176Z,1.00
2022-12-31T12:44:35.736Z,1.00
2022-12-31T12:47:07.036Z,1.00
2022-12-31T12:49:43.925Z,1.00
2022-12-31T12:52:38.416Z,1.00
2022-12-31T12:55:20.710Z,1.00
2022-12-31T12:58:01.289Z,1.00
2022-12-31T13:00:46.165Z,28.00
2022-12-31T13:04:32.400Z,99.90
2022-12-31T13:07:10.916Z,56.40
2022-12-31T13:10:05.487Z,1.00
2022-12-31T13:13:22.313Z,1.00
2022-12-31T13:15:36.832Z,3.30
2022-12-31T13:18:21.302Z,98.80
2022-12-31T13:20:59.304Z,99.90
2022-12-31T13:23:41.311Z,86.10
2022-12-31T13:26:17.584Z,10.80
2022-12-31T13:28:49.070Z,11.90
2022-12-31T13:31:24.593Z,18.00
2022-12-31T13:33:59.474Z,1.00
2022-12-31T13:36:32.646Z,1.00
2022-12-31T13:39:07.107Z,1.00
2022-12-31T13:41:44.521Z,1.00
2022-12-31T13:44:22.544Z,1.00
2022-12-31T13:47:00.735Z,1.00
2022-12-31T13:49:38.218Z,1.00
2022-12-31T13:52:25.502Z,1.00
2022-12-31T13:55:04.822Z,1.00
2022-12-31T13:57:46.144Z,1.00
2022-12-31T14:00:24.069Z,1.00
2022-12-31T14:03:13.188Z,1.00
2022-12-31T14:05:53.844Z,1.00
2022-12-31T14:08:22.218Z,1.00
2022-12-31T14:11:08.689Z,63.50
2022-12-31T14:13:54.355Z,99.90
2022-12-31T14:16:36.700Z,99.90
2022-12-31T14:19:20.217Z,99.90
2022-12-31T14:22:01.183Z,99.90
2022-12-31T14:24:45.316Z,99.90
2022-12-31T14:27:23.274Z,99.90
2022-12-31T14:30:06.825Z,99.90
2022-12-31T14:33:24.919Z,99.90
2022-12-31T14:36:10.735Z,57.30
2022-12-31T14:39:02.111Z,42.70
2022-12-31T14:41:50.828Z,1.00
2022-12-31T14:44:39.007Z,6.10
2022-12-31T14:47:28.247Z,1.00
2022-12-31T14:50:07.179Z,1.00
2022-12-31T14:52:48.525Z,1.00
2022-12-31T14:55:29.086Z,1.00
2022-12-31T15:00:59.604Z,1.00
2022-12-31T15:03:44.757Z,1.00
2022-12-31T15:06:46.427Z,1.00
2022-12-31T15:09:36.454Z,1.00
2022-12-31T15:12:32.630Z,1.00
2022-12-31T15:15:33.549Z,1.00
2022-12-31T15:18:23.015Z,1.00
2022-12-31T15:21:17.025Z,1.00
2022-12-31T15:23:46.767Z,1.00
2022-12-31T15:26:25.113Z,1.00
2022-12-31T15:29:04.226Z,1.00
2022-12-31T15:31:35.773Z,1.00
2022-12-31T15:34:08.089Z,1.00
2022-12-31T15:36:39.390Z,1.00
2022-12-31T15:39:27.917Z,1.00
2022-12-31T15:44:52.859Z,1.00
2022-12-31T15:47:31.308Z,1.00
2022-12-31T15:50:06.592Z,1.00
2022-12-31T15:52:43.718Z,1.00
2022-12-31T15:55:26.872Z,1.00
2022-12-31T15:58:00.281Z,1.00
2022-12-31T16:00:47.817Z,1.00
2022-12-31T16:03:24.112Z,1.00
2022-12-31T16:05:58.544Z,1.00
2022-12-31T16:08:31.293Z,1.00
2022-12-31T16:11:00.883Z,1.00
2022-12-31T16:13:31.407Z,1.00
2022-12-31T16:16:06.063Z,89.10
2022-12-31T16:18:41.998Z,9.20
2022-12-31T16:21:32.914Z,57.40
2022-12-31T16:24:05.989Z,86.90
2022-12-31T16:26:44.297Z,14.40
2022-12-31T16:29:15.996Z,99.90
2022-12-31T16:31:46.449Z,99.90
2022-12-31T16:34:18.369Z,99.90
2022-12-31T16:36:59.299Z,99.90
2022-12-31T16:39:31.595Z,99.90
2022-12-31T16:42:18.406Z,99.90
2022-12-31T16:44:47.194Z,99.90
2022-12-31T16:47:23.271Z,99.90
2022-12-31T16:50:01.600Z,99.90
2022-12-31T16:52:38.133Z,99.90
2022-12-31T16:55:11.128Z,99.90
2022-12-31T16:57:40.344Z,99.90
2022-12-31T17:00:17.466Z,99.90
2022-12-31T17:02:54.460Z,99.90
2022-12-31T17:05:25.812Z,1.00
2022-12-31T17:07:56.717Z,1.00
2022-12-31T17:10:27.829Z,1.00
2022-12-31T17:15:48.000Z,1.00
2022-12-31T17:18:21.239Z,1.00
2022-12-31T17:20:52.084Z,1.00
2022-12-31T17:23:28.504Z,1.00
2022-12-31T17:26:02.015Z,1.00
2022-12-31T17:28:45.943Z,1.00
2022-12-31T17:31:33.741Z,1.00
2022-12-31T17:34:32.116Z,1.00
2022-12-31T17:37:16.093Z,1.00
2022-12-31T17:39:51.393Z,1.00
2022-12-31T17:42:34.425Z,1.00
2022-12-31T17:45:07.156Z,4.80
2022-12-31T17:47:38.794Z,41.50
2022-12-31T17:50:20.169Z,99.90
2022-12-31T17:52:48.995Z,1.00
2022-12-31T17:55:18.562Z,1.00
2022-12-31T17:57:54.034Z,1.00
2022-12-31T18:00:26.284Z,94.50
2022-12-31T18:02:54.784Z,99.90
2022-12-31T18:05:25.343Z,99.90
2022-12-31T18:07:54.436Z,99.90
2022-12-31T18:10:28.305Z,99.90
2022-12-31T18:12:56.770Z,99.90
2022-12-31T18:15:26.051Z,99.90
2022-12-31T18:17:54.326Z,99.90
2022-12-31T18:20:22.798Z,99.90
2022-12-31T18:22:51.864Z,1.00
2022-12-31T18:28:02.725Z,99.90
2022-12-31T18:30:31.093Z,1.00
2022-12-31T18:32:59.296Z,1.00
2022-12-31T18:36:06.640Z,1.00
2022-12-31T18:38:18.599Z,1.00
2022-12-31T18:40:56.494Z,1.00
2022-12-31T18:43:24.994Z,1.00
2022-12-31T18:45:54.226Z,99.90
2022-12-31T18:48:22.445Z,1.00
2022-12-31T18:50:51.343Z,99.90
2022-12-31T18:53:22.816Z,1.00
2022-12-31T18:55:55.294Z,99.90
2022-12-31T18:58:24.097Z,1.00
2022-12-31T19:00:53.481Z,1.00
2022-12-31T19:03:24.583Z,1.00
2022-12-31T19:05:52.985Z,2.50
2022-12-31T19:08:23.792Z,36.10
2022-12-31T19:10:54.039Z,99.90
2022-12-31T19:13:23.178Z,1.00
2022-12-31T19:15:54.012Z,40.20
2022-12-31T19:18:22.163Z,1.00
2022-12-31T19:20:51.916Z,1.00
2022-12-31T19:23:22.950Z,1.00
2022-12-31T19:25:52.595Z,1.00
2022-12-31T19:28:24.481Z,1.00
2022-12-31T19:30:53.233Z,1.00
2022-12-31T19:33:21.700Z,1.00
2022-12-31T19:35:50.253Z,1.00
2022-12-31T19:38:21.924Z,1.00
2022-12-31T19:40:53.630Z,1.00
2022-12-31T19:43:24.616Z,1.00
2022-12-31T19:45:54.207Z,99.90
2022-12-31T19:48:32.263Z,99.90
2022-12-31T19:51:01.729Z,99.90
2022-12-31T19:53:30.154Z,99.90
2022-12-31T19:55:59.677Z,99.90
2022-12-31T19:58:28.796Z,84.50
2022-12-31T20:01:02.840Z,32.70
2022-12-31T20:03:32.344Z,1.00
2022-12-31T20:06:08.164Z,1.00
2022-12-31T20:08:37.715Z,1.00
2022-12-31T20:11:13.135Z,1.00
2022-12-31T20:13:43.122Z,1.00
2022-12-31T20:16:15.264Z,99.90
2022-12-31T20:18:45.862Z,99.90
2022-12-31T20:21:17.698Z,99.90
2022-12-31T20:23:46.971Z,99.90
2022-12-31T20:26:17.230Z,99.90
2022-12-31T20:28:45.552Z,99.90
2022-12-31T20:31:20.976Z,99.90
2022-12-31T20:33:49.394Z,99.90
2022-12-31T20:36:18.653Z,99.90
2022-12-31T20:38:47.560Z,99.60
2022-12-31T20:41:19.841Z,81.40
2022-12-31T20:43:48.702Z,18.10
2022-12-31T20:46:19.991Z,1.00
2022-12-31T20:48:49.886Z,1.00
2022-12-31T20:51:19.962Z,1.00
2022-12-31T20:53:49.663Z,1.00
2022-12-31T20:56:20.085Z,1.00
2022-12-31T20:58:49.075Z,1.00
2022-12-31T21:01:18.682Z,1.00
2022-12-31T21:04:05.977Z,1.00
2022-12-31T21:06:36.484Z,1.00
2022-12-31T21:09:08.167Z,1.00
2022-12-31T21:11:55.446Z,1.00
2022-12-31T21:14:23.663Z,1.00
2022-12-31T21:16:52.035Z,1.00
2022-12-31T21:19:20.308Z,1.00
2022-12-31T21:21:49.754Z,1.00
2022-12-31T21:24:23.554Z,1.00
2022-12-31T21:26:56.481Z,1.00
2022-12-31T21:29:25.729Z,1.00
2022-12-31T21:31:56.034Z,1.00
2022-12-31T21:34:24.223Z,1.00
2022-12-31T21:36:52.460Z,1.00
2022-12-31T21:39:20.651Z,1.00
2022-12-31T21:41:54.689Z,1.00
2022-12-31T21:44:26.451Z,1.00
2022-12-31T21:47:40.934Z,1.00
2022-12-31T21:50:10.147Z,1.00
2022-12-31T21:52:38.369Z,1.00
2022-12-31T21:55:25.790Z,1.00
2022-12-31T22:01:01.172Z,1.00
2022-12-31T22:03:31.722Z,1.00
2022-12-31T22:06:05.674Z,1.00
2022-12-31T22:08:33.842Z,1.00
2022-12-31T22:11:02.162Z,1.00
2022-12-31T22:13:30.410Z,1.00
2022-12-31T22:16:05.143Z,1.00
2022-12-31T22:18:38.385Z,1.00
2022-12-31T22:21:17.404Z,1.00
2022-12-31T22:23:48.365Z,1.00
2022-12-31T22:26:19.021Z,1.00
2022-12-31T22:28:48.021Z,1.00
2022-12-31T22:31:20.921Z,1.00
2022-12-31T22:33:49.897Z,1.00
2022-12-31T22:36:20.611Z,1.00
2022-12-31T22:38:49.910Z,1.00
2022-12-31T22:41:21.160Z,1.00
2022-12-31T22:43:51.689Z,1.00
2022-12-31T22:46:24.367Z,1.00
2022-12-31T22:48:54.451Z,1.00
2022-12-31T22:51:22.741Z,99.90
2022-12-31T22:53:50.971Z,99.90
2022-12-31T22:56:20.575Z,99.90
2022-12-31T22:58:49.112Z,99.90
2022-12-31T23:01:21.850Z,99.90
2022-12-31T23:03:53.193Z,99.90
2022-12-31T23:06:23.910Z,1.00
2022-12-31T23:09:11.593Z,99.90
2022-12-31T23:11:43.081Z,99.90
2022-12-31T23:14:34.139Z,99.90
2022-12-31T23:17:30.867Z,99.90
2022-12-31T23:20:19.463Z,99.90
2022-12-31T23:23:07.084Z,99.90
2022-12-31T23:25:37.740Z,99.90
2022-12-31T23:28:07.788Z,99.90
2022-12-31T23:30:38.956Z,99.90
2022-12-31T23:33:16.049Z,99.90
2022-12-31T23:35:46.528Z,99.90
2022-12-31T23:38:16.759Z,99.90
2022-12-31T23:40:45.431Z,99.90
2022-12-31T23:43:21.900Z,99.90
2022-12-31T23:45:50.816Z,99.90
2022-12-31T23:48:20.756Z,99.90
2022-12-31T23:50:53.783Z,99.90
2022-12-31T23:53:23.244Z,99.90
2022-12-31T23:55:51.822Z,99.90
2022-12-31T23:58:21.128Z,99.90
